Sign up and join Friends of Consider Biking on RideNet.

   Join RideNet...   

Learn more about RideNet...

Special Thanks To

The Columbus Foundation

RideNet iPhone App

Available in the App Store

Incentives and Prizes

RideNet Clothing

Available @ Paradise Garage

Most-Viewed Rider

Daniel Noonan (2)

Friends of Consider Biking and 2 BY 2012

The goal of 2 BY 2012 is for each citizen of central Ohio to bicycle to work or school, or run an errand by bike, two days a month by the Columbus bicentennial in 2012.


Join the Movement

2 BY 2012 is both a challenge and a movement. As citizens of Columbus rise to the challenge and change the way we get to work, we can start a movement that will significantly benefit our lives, our economy and our community. Join the movement today by going to 'Your Profile', updating your rider bio and logging your first ride!

Learn more about Consider Biking at our website: http://www.considerbiking.org

 Login To Post Message 

What's happening @ Friends of Consider Biking

To log a ride or post a race result, go to Your Profile. To post a message on this page, click "Post Message".
Thursday, Dec 7 • 169 days ago
  9 mile commute
  9 mile commute
Wednesday, Dec 6 • 170 days ago
  9 mile commute
  9 mile commute
Tuesday, Dec 5 • 171 days ago
  9 mile commute
Monday, Dec 4 • 172 days ago
  9 mile commute
Friday, Dec 1 • 175 days ago
  2 mile errand
  2 mile errand
  2 mile errand
Wednesday, Nov 29 • 177 days ago
  9 mile commute
  9 mile commute
Tuesday, Nov 28 • 178 days ago
  9 mile commute
  9 mile commute
Monday, Nov 27 • 179 days ago
670 Trail. METAR KOSU 271553Z 00000KT 10SM CLR 09/01 A3017 RMK AO2 SLP223 T00890006  10 mile commute
  2 mile errand
  2 mile errand
Wednesday, Nov 22 • 184 days ago
  2 mile errand
  2 mile errand
Tuesday, Nov 21 • 185 days ago
  2 mile errand
  2 mile errand
Monday, Nov 20 • 186 days ago
  2 mile errand
  2 mile errand
Friday, Nov 17 • 189 days ago
  2 mile errand
  2 mile errand
Thursday, Nov 16 • 190 days ago
  2 mile errand
  2 mile errand
Tuesday, Nov 14 • 192 days ago
670 Trail. METAR KOSU 141953Z VRB03KT 10SM CLR 08/M01 A3029 RMK AO2 SLP264 T00781006  10 mile commute
Thursday, Nov 9 • 197 days ago
  2 mile errand
  2 mile errand
Wednesday, Nov 8 • 198 days ago
  2 mile errand
GET MORE